Flight Track Log - Related Links

Times and Time Zones

All times are in EDT time to prevent confusion due to time zone crossing. See the ANE8526 flight status page for this flight to view local times or setup timezone preferences in your user account.

Time Position Orientation Groundspeed Altitude Reporting Facility
EDT Latitude Longitude Course Direction KTS MPH feet Rate Location/Type
Fri 02:46:00 PM 41.0272 -3.1310 32° Northeast  Level Estimated
Fri 02:47:00 PM 41.1033 -3.0681 32° Northeast  Level Estimated
Fri 02:48:00 PM 41.1793 -3.0052 32° Northeast  Level Estimated
Fri 02:49:00 PM 41.2554 -2.9420 32° Northeast  Level Estimated
Fri 02:50:00 PM 41.3314 -2.8788 32° Northeast  Level Estimated
Fri 02:51:00 PM 41.4073 -2.8153 32° Northeast  Level Estimated
Fri 02:52:00 PM 41.4832 -2.7518 32° Northeast  Level Estimated
Fri 02:53:00 PM 41.5591 -2.6881 32° Northeast  Level Estimated
Fri 02:54:00 PM 41.6350 -2.6242 32° Northeast  Level Estimated
Fri 02:55:00 PM 41.7108 -2.5602 32° Northeast  Level Estimated
Fri 02:56:00 PM 41.7866 -2.4960 32° Northeast  Level Estimated
Fri 02:57:00 PM 41.8623 -2.4317 32° Northeast  Level Estimated
Fri 02:58:00 PM 41.9380 -2.3672 32° Northeast  Level Estimated
Fri 02:59:00 PM 42.0137 -2.3026 32° Northeast  Level Estimated
Fri 03:00:00 PM 42.0894 -2.2378 32° Northeast  Level Estimated
Fri 03:01:00 PM 42.1650 -2.1729 32° Northeast  Level Estimated
Fri 03:02:00 PM 42.2405 -2.1078 33° Northeast  Level Estimated
Fri 03:03:00 PM 42.3161 -2.0425 33° Northeast  Level Estimated
Fri 03:04:00 PM 42.3915 -1.9771 33° Northeast  Level Estimated
Fri 03:05:00 PM 42.4670 -1.9116 33° Northeast  Level Estimated
Fri 03:06:00 PM 42.5424 -1.8458 33° Northeast  Level Estimated
Fri 03:07:00 PM 42.6178 -1.7800 33° Northeast  Level Estimated
Fri 03:08:00 PM 42.6931 -1.7139 33° Northeast  Level Estimated
Fri 03:09:00 PM 42.7684 -1.6477 33° Northeast  Level Estimated
Fri 03:10:00 PM 42.7700 -1.6463 33° Northeast  Level Estimated
Fri 03:11:00 PM 42.7700 -1.6463 216° Southwest  Level Estimated
Fri 03:12:00 PM 42.7700 -1.6463 216° Southwest  Level Estimated
Fri 03:13:00 PM 42.7700 -1.6463 216° Southwest  Level Estimated
Fri 03:14:00 PM 42.7700 -1.6463 216° Southwest  Level Estimated
Fri 03:15:00 PM 42.7700 -1.6463 216° Southwest  Level Estimated
Fri 03:16:00 PM 42.7700 -1.6463 216° Southwest  Level Estimated
Fri 03:17:00 PM 42.7700 -1.6463 216° Southwest  Level Estimated
Fri 03:18:00 PM 42.7700 -1.6463 216° Southwest  Level Estimated
Fri 03:19:00 PM 42.7700 -1.6463 216° Southwest  Level Estimated
Fri 03:20:00 PM 42.7700 -1.6463 216° Southwest  Level Estimated
Fri 03:21:00 PM 42.7700 -1.6463 216° Southwest  Level Estimated
Fri 03:22:00 PM 42.7700 -1.6463 216° Southwest  Level Estimated
Fri 03:23:00 PM 42.7700 -1.6463 216° Southwest  Level Estimated
Fri 03:24:00 PM 42.7700 -1.6463 216° Southwest  Level Estimated

Login

Don't have an account? Register now (free) for customized features, flight alerts, and more!